Time,TemperatureF,DewpointF,PressureIn,WindDirection,WindDirectionDegrees,WindSpeedMPH,WindSpeedGustMPH,Humidity,HourlyPrecipIn,Conditions,Clouds,dailyrainin,SoftwareType,DateUTC
2012-07-16 00:00:00,82.2,68.3,30.03,NE,52,2.7,4.0,63,0.00,,,0.00,VWS V13.01,2012-07-16 05:00:00,
2012-07-16 00:05:00,82.2,68.3,30.03,East,99,0.0,0.0,63,0.00,,,0.00,VWS V13.01,2012-07-16 05:05:00,
2012-07-16 00:10:00,82.0,68.2,30.03,East,96,0.0,2.7,63,0.00,,,0.00,VWS V13.01,2012-07-16 05:10:00,
2012-07-16 00:15:00,82.0,68.2,30.03,NE,36,2.7,2.7,63,0.00,,,0.00,VWS V13.01,2012-07-16 05:15:00,
2012-07-16 00:20:00,82.0,67.7,30.00,NE,38,0.0,0.0,62,0.00,,,0.00,VWS V13.01,2012-07-16 05:20:00,
2012-07-16 00:25:00,81.8,68.0,30.00,NE,35,0.0,0.0,63,0.00,,,0.00,VWS V13.01,2012-07-16 05:25:00,
2012-07-16 00:30:00,81.8,68.0,30.00,NE,34,0.0,0.0,63,0.00,,,0.00,VWS V13.01,2012-07-16 05:30:00,
2012-07-16 00:35:00,81.6,68.7,30.00,NE,35,0.0,0.0,65,0.00,,,0.00,VWS V13.01,2012-07-16 05:35:00,
2012-07-16 00:40:00,81.4,68.6,30.00,NNE,20,2.7,2.7,65,0.00,,,0.00,VWS V13.01,2012-07-16 05:40:00,
2012-07-16 00:45:00,81.3,68.4,30.00,ENE,65,0.0,0.0,65,0.00,,,0.00,VWS V13.01,2012-07-16 05:45:00,
2012-07-16 00:50:00,81.3,68.8,30.00,NNE,29,0.0,2.7,66,0.00,,,0.00,VWS V13.01,2012-07-16 05:50:00,
2012-07-16 00:55:00,81.1,68.7,30.00,NE,47,3.6,3.6,66,0.00,,,0.00,VWS V13.01,2012-07-16 05:55:00,
2012-07-16 01:00:00,81.1,68.7,30.00,ENE,68,0.0,0.0,66,0.00,,,0.00,VWS V13.01,2012-07-16 06:00:00,
2012-07-16 01:05:00,81.1,68.7,30.00,NE,51,0.0,0.0,66,0.00,,,0.00,VWS V13.01,2012-07-16 06:05:00,
2012-07-16 01:10:00,81.1,68.7,30.00,ENE,66,0.0,0.0,66,0.00,,,0.00,VWS V13.01,2012-07-16 06:10:00,
2012-07-16 01:15:00,80.9,68.5,30.00,ENE,76,0.0,2.7,66,0.00,,,0.00,VWS V13.01,2012-07-16 06:15:00,
2012-07-16 01:20:00,80.9,68.5,30.00,ENE,71,0.0,0.0,66,0.00,,,0.00,VWS V13.01,2012-07-16 06:20:00,
2012-07-16 01:25:00,80.7,68.8,30.00,NE,52,0.0,0.0,67,0.00,,,0.00,VWS V13.01,2012-07-16 06:25:00,
2012-07-16 01:30:00,80.5,68.6,30.00,NNW,340,0.0,3.6,67,0.00,,,0.00,VWS V13.01,2012-07-16 06:30:00,
2012-07-16 01:35:00,80.5,68.6,30.00,NE,45,3.1,3.1,67,0.00,,,0.00,VWS V13.01,2012-07-16 06:35:00,
2012-07-16 01:40:00,80.5,69.0,30.00,North,360,0.0,0.0,68,0.00,,,0.00,VWS V13.01,2012-07-16 06:40:00,
2012-07-16 01:45:00,80.5,69.0,30.00,NNE,16,0.0,2.2,68,0.00,,,0.00,VWS V13.01,2012-07-16 06:45:00,
2012-07-16 01:50:00,80.4,68.8,30.00,NE,55,0.0,0.0,68,0.00,,,0.00,VWS V13.01,2012-07-16 06:50:00,
2012-07-16 01:55:00,80.4,68.8,30.00,NE,55,0.0,0.0,68,0.00,,,0.00,VWS V13.01,2012-07-16 06:55:00,
2012-07-16 02:00:00,80.2,69.1,30.00,ENE,70,0.0,0.0,69,0.00,,,0.00,VWS V13.01,2012-07-16 07:00:00,
2012-07-16 02:05:00,80.0,69.3,30.00,ENE,65,0.0,0.0,70,0.00,,,0.00,VWS V13.01,2012-07-16 07:05:00,
2012-07-16 02:10:00,79.8,69.6,30.00,NE,41,0.0,0.0,71,0.00,,,0.00,VWS V13.01,2012-07-16 07:10:00,
2012-07-16 02:15:00,79.6,69.4,30.00,NE,41,0.0,0.0,71,0.00,,,0.00,VWS V13.01,2012-07-16 07:15:00,
2012-07-16 02:20:00,79.6,69.8,30.00,NE,41,0.0,0.0,72,0.00,,,0.00,VWS V13.01,2012-07-16 07:20:00,
2012-07-16 02:24:00,79.6,69.4,30.00,NE,41,0.0,0.0,71,0.00,,,0.00,VWS V13.01,2012-07-16 07:24:00,
2012-07-16 02:29:00,79.6,69.8,30.00,NE,41,0.0,0.0,72,0.00,,,0.00,VWS V13.01,2012-07-16 07:29:00,
2012-07-16 02:34:00,79.5,69.7,30.00,NE,41,0.0,0.0,72,0.00,,,0.00,VWS V13.01,2012-07-16 07:34:00,
2012-07-16 02:39:00,79.5,69.7,30.00,NNE,26,0.0,0.0,72,0.00,,,0.00,VWS V13.01,2012-07-16 07:39:00,
2012-07-16 02:44:00,79.5,70.1,30.00,NE,50,0.0,0.0,73,0.00,,,0.00,VWS V13.01,2012-07-16 07:44:00,
2012-07-16 02:49:00,79.5,70.1,30.00,North,8,4.0,4.0,73,0.00,,,0.00,VWS V13.01,2012-07-16 07:49:00,
2012-07-16 02:54:00,79.5,70.1,30.00,NE,51,0.0,2.7,73,0.00,,,0.00,VWS V13.01,2012-07-16 07:54:00,
2012-07-16 02:59:00,79.5,70.1,30.00,North,349,0.0,0.0,73,0.00,,,0.00,VWS V13.01,2012-07-16 07:59:00,
2012-07-16 03:04:00,79.5,70.1,30.00,North,349,0.0,0.0,73,0.00,,,0.00,VWS V13.01,2012-07-16 08:04:00,
2012-07-16 03:09:00,79.3,69.9,30.00,NNE,14,0.0,0.0,73,0.00,,,0.00,VWS V13.01,2012-07-16 08:09:00,
2012-07-16 03:14:00,79.1,70.1,30.00,NNE,14,0.0,0.0,74,0.00,,,0.00,VWS V13.01,2012-07-16 08:14:00,
2012-07-16 03:19:00,78.9,69.9,30.00,NNE,14,0.0,0.0,74,0.00,,,0.00,VWS V13.01,2012-07-16 08:19:00,
2012-07-16 03:24:00,78.7,70.2,30.00,North,8,0.0,0.0,75,0.00,,,0.00,VWS V13.01,2012-07-16 08:24:00,
2012-07-16 03:29:00,78.7,70.5,30.00,North,350,0.0,0.0,76,0.00,,,0.00,VWS V13.01,2012-07-16 08:29:00,
2012-07-16 03:34:00,78.6,70.4,30.00,North,354,0.0,0.0,76,0.00,,,0.00,VWS V13.01,2012-07-16 08:34:00,
2012-07-16 03:39:00,78.6,70.8,30.00,North,7,0.0,0.0,77,0.00,,,0.00,VWS V13.01,2012-07-16 08:39:00,
2012-07-16 03:44:00,78.6,71.1,30.00,NNW,342,0.0,0.0,78,0.00,,,0.00,VWS V13.01,2012-07-16 08:44:00,
2012-07-16 03:49:00,78.6,71.1,30.00,NNE,29,2.2,2.2,78,0.00,,,0.00,VWS V13.01,2012-07-16 08:49:00,
2012-07-16 03:54:00,78.6,71.1,30.00,NNE,25,0.0,0.0,78,0.00,,,0.00,VWS V13.01,2012-07-16 08:54:00,
2012-07-16 03:59:00,78.6,71.5,30.00,NNE,30,2.2,2.2,79,0.00,,,0.00,VWS V13.01,2012-07-16 08:59:00,
2012-07-16 04:04:00,78.4,71.3,30.00,NNE,30,0.0,0.0,79,0.00,,,0.00,VWS V13.01,2012-07-16 09:04:00,
2012-07-16 04:09:00,78.4,71.7,30.00,NNE,16,0.0,0.0,80,0.00,,,0.00,VWS V13.01,2012-07-16 09:09:00,
2012-07-16 04:14:00,78.2,71.5,30.00,NE,38,3.1,3.1,80,0.00,,,0.00,VWS V13.01,2012-07-16 09:14:00,
2012-07-16 04:19:00,78.2,71.5,30.00,NE,40,0.0,0.0,80,0.00,,,0.00,VWS V13.01,2012-07-16 09:19:00,
2012-07-16 04:24:00,78.0,71.7,30.00,North,8,0.0,0.0,81,0.00,,,0.00,VWS V13.01,2012-07-16 09:24:00,
2012-07-16 04:29:00,78.0,72.1,30.00,NNE,15,0.0,0.0,82,0.00,,,0.00,VWS V13.01,2012-07-16 09:29:00,
2012-07-16 04:34:00,78.0,72.1,30.00,NNE,22,0.0,0.0,82,0.00,,,0.00,VWS V13.01,2012-07-16 09:34:00,
2012-07-16 04:39:00,78.0,72.4,30.00,NNE,33,0.0,0.0,83,0.00,,,0.00,VWS V13.01,2012-07-16 09:39:00,
2012-07-16 04:44:00,77.8,71.9,30.00,NNE,33,0.0,0.0,82,0.00,,,0.00,VWS V13.01,2012-07-16 09:44:00,
2012-07-16 04:49:00,77.8,71.9,30.00,NNE,33,0.0,0.0,82,0.00,,,0.00,VWS V13.01,2012-07-16 09:49:00,
2012-07-16 04:54:00,77.7,72.4,30.00,NNE,33,0.0,0.0,84,0.00,,,0.00,VWS V13.01,2012-07-16 09:54:00,
2012-07-16 04:59:00,77.7,72.4,30.00,NNE,33,0.0,0.0,84,0.00,,,0.00,VWS V13.01,2012-07-16 09:59:00,
2012-07-16 05:04:00,77.7,72.4,30.00,NNE,33,0.0,0.0,84,0.00,,,0.00,VWS V13.01,2012-07-16 10:04:00,
2012-07-16 05:09:00,77.5,72.3,30.00,NNE,33,0.0,0.0,84,0.00,,,0.00,VWS V13.01,2012-07-16 10:09:00,
2012-07-16 05:14:00,77.3,72.1,30.00,NNE,33,0.0,0.0,84,0.00,,,0.00,VWS V13.01,2012-07-16 10:14:00,
2012-07-16 05:19:00,77.1,72.3,30.00,NNE,33,0.0,0.0,85,0.00,,,0.00,VWS V13.01,2012-07-16 10:19:00,
2012-07-16 05:24:00,76.9,72.4,30.00,NNE,33,0.0,0.0,86,0.00,,,0.00,VWS V13.01,2012-07-16 10:24:00,
2012-07-16 05:29:00,76.8,72.3,30.00,NNE,33,0.0,0.0,86,0.00,,,0.00,VWS V13.01,2012-07-16 10:29:00,
2012-07-16 05:34:00,76.6,72.4,30.00,NE,34,0.0,0.0,87,0.00,,,0.00,VWS V13.01,2012-07-16 10:34:00,
2012-07-16 05:39:00,76.6,72.4,30.00,NE,34,0.0,0.0,87,0.00,,,0.00,VWS V13.01,2012-07-16 10:39:00,
2012-07-16 05:44:00,76.8,73.3,30.00,NE,34,0.0,0.0,89,0.00,,,0.00,VWS V13.01,2012-07-16 10:44:00,
2012-07-16 05:49:00,76.6,73.4,30.00,NE,34,0.0,0.0,90,0.00,,,0.00,VWS V13.01,2012-07-16 10:49:00,
2012-07-16 05:54:00,76.8,73.6,30.00,NE,34,0.0,0.0,90,0.00,,,0.00,VWS V13.01,2012-07-16 10:54:00,
2012-07-16 05:59:00,76.8,73.6,30.00,NE,34,0.0,0.0,90,0.00,,,0.00,VWS V13.01,2012-07-16 10:59:00,
2012-07-16 06:04:00,76.8,73.6,30.00,NE,34,0.0,0.0,90,0.00,,,0.00,VWS V13.01,2012-07-16 11:04:00,
2012-07-16 06:09:00,76.8,73.6,30.00,North,355,0.0,0.0,90,0.00,,,0.00,VWS V13.01,2012-07-16 11:09:00,
2012-07-16 06:14:00,76.8,73.6,30.00,North,355,0.0,0.0,90,0.00,,,0.00,VWS V13.01,2012-07-16 11:14:00,
2012-07-16 06:19:00,76.8,73.6,30.00,North,355,0.0,0.0,90,0.00,,,0.00,VWS V13.01,2012-07-16 11:19:00,
2012-07-16 06:24:00,76.8,73.6,30.00,West,280,0.0,0.0,90,0.00,,,0.00,VWS V13.01,2012-07-16 11:24:00,
2012-07-16 06:29:00,76.8,73.6,30.00,West,280,0.0,0.0,90,0.00,,,0.00,VWS V13.01,2012-07-16 11:29:00,
2012-07-16 06:34:00,76.8,73.6,30.00,West,280,0.0,0.0,90,0.00,,,0.00,VWS V13.01,2012-07-16 11:34:00,
2012-07-16 06:39:00,76.8,73.6,30.00,West,280,0.0,0.0,90,0.00,,,0.00,VWS V13.01,2012-07-16 11:39:00,
2012-07-16 06:44:00,76.8,73.6,30.00,West,280,0.0,0.0,90,0.00,,,0.00,VWS V13.01,2012-07-16 11:44:00,
2012-07-16 06:49:00,76.9,73.8,30.00,West,280,0.0,0.0,90,0.00,,,0.00,VWS V13.01,2012-07-16 11:49:00,
2012-07-16 06:54:00,77.1,74.0,30.00,West,280,0.0,0.0,90,0.00,,,0.00,VWS V13.01,2012-07-16 11:54:00,
2012-07-16 06:59:00,77.3,74.1,30.03,West,280,0.0,0.0,90,0.00,,,0.00,VWS V13.01,2012-07-16 11:59:00,
2012-07-16 07:04:00,77.5,74.3,30.03,West,280,0.0,0.0,90,0.00,,,0.00,VWS V13.01,2012-07-16 12:04:00,
2012-07-16 07:09:00,77.7,74.5,30.03,West,280,0.0,0.0,90,0.00,,,0.00,VWS V13.01,2012-07-16 12:09:00,
2012-07-16 07:14:00,78.0,74.5,30.03,East,87,0.0,0.0,89,0.00,,,0.00,VWS V13.01,2012-07-16 12:14:00,
2012-07-16 07:19:00,78.6,74.4,30.00,ESE,103,0.0,0.0,87,0.00,,,0.00,VWS V13.01,2012-07-16 12:19:00,
2012-07-16 07:24:00,78.9,74.0,30.00,NNE,31,2.2,2.2,85,0.00,,,0.00,VWS V13.01,2012-07-16 12:24:00,
2012-07-16 07:29:00,79.5,72.8,30.03,East,91,0.0,0.0,80,0.00,,,0.00,VWS V13.01,2012-07-16 12:29:00,
2012-07-16 07:34:00,79.8,72.7,30.03,ESE,107,2.7,2.7,79,0.00,,,0.00,VWS V13.01,2012-07-16 12:34:00,
2012-07-16 07:39:00,80.2,72.3,30.03,NE,46,0.0,2.2,77,0.00,,,0.00,VWS V13.01,2012-07-16 12:39:00,
2012-07-16 07:44:00,80.4,72.1,30.03,ENE,75,0.0,0.0,76,0.00,,,0.00,VWS V13.01,2012-07-16 12:44:00,
2012-07-16 07:49:00,80.9,72.2,30.03,NNE,31,0.0,0.0,75,0.00,,,0.00,VWS V13.01,2012-07-16 12:49:00,
2012-07-16 07:54:00,81.3,71.4,30.03,NE,37,2.7,2.7,72,0.00,,,0.00,VWS V13.01,2012-07-16 12:54:00,
2012-07-16 07:59:00,81.8,71.1,30.03,NNE,16,4.0,4.0,70,0.00,,,0.00,VWS V13.01,2012-07-16 12:59:00,
2012-07-16 08:04:00,81.8,71.1,30.03,SE,127,0.0,0.0,70,0.00,,,0.00,VWS V13.01,2012-07-16 13:04:00,
2012-07-16 08:09:00,81.6,71.3,30.03,NE,36,4.0,4.0,71,0.00,,,0.00,VWS V13.01,2012-07-16 13:09:00,
2012-07-16 08:14:00,82.0,71.2,30.03,SE,131,0.0,0.0,70,0.00,,,0.00,VWS V13.01,2012-07-16 13:14:00,
2012-07-16 08:19:00,82.5,71.3,30.03,East,93,0.0,0.0,69,0.00,,,0.00,VWS V13.01,2012-07-16 13:19:00,
2012-07-16 08:24:00,82.9,70.4,30.03,East,100,0.0,0.0,66,0.00,,,0.00,VWS V13.01,2012-07-16 13:24:00,
2012-07-16 08:29:00,83.1,70.5,30.03,East,83,2.7,2.7,66,0.00,,,0.00,VWS V13.01,2012-07-16 13:29:00,
2012-07-16 08:34:00,83.1,69.2,30.03,East,82,0.0,0.0,63,0.00,,,0.00,VWS V13.01,2012-07-16 13:34:00,
2012-07-16 08:39:00,83.4,70.0,30.03,South,179,0.0,0.0,64,0.00,,,0.00,VWS V13.01,2012-07-16 13:39:00,
2012-07-16 08:44:00,83.4,70.0,30.03,ESE,122,4.0,4.0,64,0.00,,,0.00,VWS V13.01,2012-07-16 13:44:00,
2012-07-16 08:49:00,83.2,69.3,30.03,South,169,4.0,4.0,63,0.00,,,0.00,VWS V13.01,2012-07-16 13:49:00,
2012-07-16 08:54:00,83.4,69.5,30.03,SE,133,0.0,0.0,63,0.00,,,0.00,VWS V13.01,2012-07-16 13:54:00,
2012-07-16 08:59:00,83.6,69.2,30.03,West,261,0.0,0.0,62,0.00,,,0.00,VWS V13.01,2012-07-16 13:59:00,
2012-07-16 09:04:00,84.0,69.1,30.03,SSE,168,0.0,2.7,61,0.00,,,0.00,VWS V13.01,2012-07-16 14:04:00,
2012-07-16 09:09:00,84.3,67.9,30.03,SE,143,2.2,3.6,58,0.00,,,0.00,VWS V13.01,2012-07-16 14:09:00,
2012-07-16 09:14:00,84.3,66.4,30.03,SSE,154,7.2,7.2,55,0.00,,,0.00,VWS V13.01,2012-07-16 14:14:00,
2012-07-16 09:19:00,84.1,67.3,30.03,WSW,250,2.7,5.4,57,0.00,,,0.00,VWS V13.01,2012-07-16 14:19:00,
2012-07-16 09:24:00,84.3,66.9,30.03,WSW,240,4.9,6.3,56,0.00,,,0.00,VWS V13.01,2012-07-16 14:24:00,
2012-07-16 09:29:00,84.9,67.4,30.03,SSE,153,2.7,5.4,56,0.00,,,0.00,VWS V13.01,2012-07-16 14:29:00,
2012-07-16 09:34:00,85.2,67.2,30.03,SW,233,3.6,6.3,55,0.00,,,0.00,VWS V13.01,2012-07-16 14:34:00,
2012-07-16 09:39:00,85.4,66.3,30.03,SSW,194,2.7,5.8,53,0.00,,,0.00,VWS V13.01,2012-07-16 14:39:00,
2012-07-16 09:44:00,85.0,66.6,30.03,SSE,164,5.8,5.8,54,0.00,,,0.00,VWS V13.01,2012-07-16 14:44:00,
2012-07-16 09:49:00,85.0,66.6,30.00,South,170,5.4,5.8,54,0.00,,,0.00,VWS V13.01,2012-07-16 14:49:00,
2012-07-16 09:54:00,85.6,66.0,30.00,SW,229,2.7,6.3,52,0.00,,,0.00,VWS V13.01,2012-07-16 14:54:00,
2012-07-16 09:59:00,85.8,66.1,30.00,SW,229,2.7,6.3,52,0.00,,,0.00,VWS V13.01,2012-07-16 14:59:00,
2012-07-16 10:04:00,86.3,66.1,30.03,South,185,5.4,5.8,51,0.00,,,0.00,VWS V13.01,2012-07-16 15:04:00,
2012-07-16 10:09:00,86.7,65.2,30.03,SW,231,5.4,5.4,49,0.00,,,0.00,VWS V13.01,2012-07-16 15:09:00,
2012-07-16 10:14:00,86.5,65.1,30.03,SSE,156,3.1,5.4,49,0.00,,,0.00,VWS V13.01,2012-07-16 15:14:00,
2012-07-16 10:19:00,86.3,65.5,30.03,East,90,3.1,4.5,50,0.00,,,0.00,VWS V13.01,2012-07-16 15:19:00,
2012-07-16 10:24:00,86.8,65.4,30.03,South,174,5.4,8.1,49,0.00,,,0.00,VWS V13.01,2012-07-16 15:24:00,
2012-07-16 10:28:00,86.8,65.4,30.03,SSE,164,7.6,7.6,49,0.00,,,0.00,VWS V13.01,2012-07-16 15:28:00,
2012-07-16 10:33:00,87.6,64.9,30.03,SSE,156,3.6,4.0,47,0.00,,,0.00,VWS V13.01,2012-07-16 15:33:00,
2012-07-16 10:38:00,87.9,63.9,30.03,South,178,3.6,5.8,45,0.00,,,0.00,VWS V13.01,2012-07-16 15:38:00,
2012-07-16 10:43:00,87.9,63.9,30.03,East,100,3.1,6.3,45,0.00,,,0.00,VWS V13.01,2012-07-16 15:43:00,
2012-07-16 10:48:00,87.9,64.6,30.03,WSW,251,2.7,3.6,46,0.00,,,0.00,VWS V13.01,2012-07-16 15:48:00,
2012-07-16 10:53:00,87.9,63.9,30.03,West,264,3.6,5.8,45,0.00,,,0.00,VWS V13.01,2012-07-16 15:53:00,
2012-07-16 10:58:00,88.1,64.1,30.03,WSW,255,2.7,3.1,45,0.00,,,0.00,VWS V13.01,2012-07-16 15:58:00,
2012-07-16 11:03:00,88.5,64.4,30.03,SW,233,5.4,5.8,45,0.00,,,0.00,VWS V13.01,2012-07-16 16:03:00,
2012-07-16 11:08:00,89.2,64.4,30.03,NE,55,4.0,4.0,44,0.00,,,0.00,VWS V13.01,2012-07-16 16:08:00,
2012-07-16 11:13:00,90.1,63.9,30.03,West,278,0.0,2.7,42,0.00,,,0.00,VWS V13.01,2012-07-16 16:13:00,
2012-07-16 11:18:00,90.8,63.9,30.00,ESE,115,3.6,4.0,41,0.00,,,0.00,VWS V13.01,2012-07-16 16:18:00,
2012-07-16 11:23:00,90.6,63.7,30.00,SSW,210,3.1,5.4,41,0.00,,,0.00,VWS V13.01,2012-07-16 16:23:00,
2012-07-16 11:28:00,89.9,63.8,30.00,SSW,212,2.7,2.7,42,0.00,,,0.00,VWS V13.01,2012-07-16 16:28:00,
2012-07-16 11:33:00,89.4,63.9,30.00,South,173,3.6,3.6,43,0.00,,,0.00,VWS V13.01,2012-07-16 16:33:00,
2012-07-16 11:39:00,89.4,63.3,30.00,North,351,4.0,4.0,42,0.00,,,0.00,VWS V13.01,2012-07-16 16:39:00,
2012-07-16 11:43:00,89.7,63.6,30.00,WSW,247,2.7,2.7,42,0.00,,,0.00,VWS V13.01,2012-07-16 16:43:00,
2012-07-16 11:48:00,90.1,63.9,30.00,South,187,3.1,4.0,42,0.00,,,0.00,VWS V13.01,2012-07-16 16:48:00,
2012-07-16 11:53:00,90.4,63.5,30.00,SSE,155,3.1,3.6,41,0.00,,,0.00,VWS V13.01,2012-07-16 16:53:00,
2012-07-16 11:58:00,90.8,63.2,30.00,SE,130,3.1,3.1,40,0.00,,,0.00,VWS V13.01,2012-07-16 16:58:00,
2012-07-16 12:03:00,91.2,63.5,30.00,SW,231,4.0,4.0,40,0.00,,,0.00,VWS V13.01,2012-07-16 17:03:00,
2012-07-16 12:08:00,90.8,63.2,30.00,South,172,3.1,4.0,40,0.00,,,0.00,VWS V13.01,2012-07-16 17:08:00,
2012-07-16 12:13:00,91.5,63.1,30.00,NNE,31,4.9,6.3,39,0.00,,,0.00,VWS V13.01,2012-07-16 17:13:00,
2012-07-16 12:18:00,92.2,63.7,30.00,ESE,103,4.0,4.0,39,0.00,,,0.00,VWS V13.01,2012-07-16 17:18:00,
2012-07-16 12:23:00,92.6,63.3,30.00,East,89,4.0,4.0,38,0.00,,,0.00,VWS V13.01,2012-07-16 17:23:00,
2012-07-16 12:28:00,92.4,63.9,30.00,SSW,200,4.9,8.3,39,0.00,,,0.00,VWS V13.01,2012-07-16 17:28:00,
2012-07-16 12:33:00,92.6,63.3,30.00,East,93,4.0,6.3,38,0.00,,,0.00,VWS V13.01,2012-07-16 17:33:00,
2012-07-16 12:38:00,92.4,63.2,30.00,SSE,164,2.7,4.0,38,0.00,,,0.00,VWS V13.01,2012-07-16 17:38:00,
2012-07-16 12:43:00,92.4,63.2,30.00,SE,127,3.1,5.8,38,0.00,,,0.00,VWS V13.01,2012-07-16 17:43:00,
2012-07-16 12:48:00,93.0,63.6,30.00,SE,128,7.6,8.1,38,0.00,,,0.00,VWS V13.01,2012-07-16 17:48:00,
2012-07-16 12:53:00,93.1,63.8,30.00,NNW,346,3.1,5.4,38,0.00,,,0.00,VWS V13.01,2012-07-16 17:53:00,
2012-07-16 12:58:00,93.9,63.7,30.00,NNE,32,3.1,3.1,37,0.00,,,0.00,VWS V13.01,2012-07-16 17:58:00,
2012-07-16 13:03:00,93.9,63.7,30.00,NE,34,2.7,2.7,37,0.00,,,0.00,VWS V13.01,2012-07-16 18:03:00,
2012-07-16 13:08:00,93.9,63.7,30.00,ENE,67,5.4,6.3,37,0.00,,,0.00,VWS V13.01,2012-07-16 18:08:00,
2012-07-16 13:13:00,94.0,63.8,30.00,SSE,150,4.0,4.0,37,0.00,,,0.00,VWS V13.01,2012-07-16 18:13:00,
2012-07-16 13:18:00,95.1,62.4,29.97,NE,53,8.1,8.3,34,0.00,,,0.00,VWS V13.01,2012-07-16 18:18:00,
2012-07-16 13:23:00,95.3,62.5,29.97,SE,125,3.1,4.0,34,0.00,,,0.00,VWS V13.01,2012-07-16 18:23:00,
2012-07-16 13:28:00,94.9,61.4,29.97,South,170,5.4,5.4,33,0.00,,,0.00,VWS V13.01,2012-07-16 18:28:00,
2012-07-16 13:33:00,94.8,61.2,29.97,SSE,151,5.8,8.3,33,0.00,,,0.00,VWS V13.01,2012-07-16 18:33:00,
2012-07-16 13:38:00,94.9,60.5,29.97,South,184,4.0,4.5,32,0.00,,,0.00,VWS V13.01,2012-07-16 18:38:00,
2012-07-16 13:43:00,95.3,60.8,29.97,SE,129,6.3,6.3,32,0.00,,,0.00,VWS V13.01,2012-07-16 18:43:00,
2012-07-16 13:48:00,95.8,60.4,29.97,ESE,107,5.4,7.6,31,0.00,,,0.00,VWS V13.01,2012-07-16 18:48:00,
2012-07-16 13:53:00,96.0,60.5,29.97,ESE,103,4.0,5.8,31,0.00,,,0.00,VWS V13.01,2012-07-16 18:53:00,
2012-07-16 13:58:00,96.6,61.0,29.97,SE,126,5.8,10.5,31,0.00,,,0.00,VWS V13.01,2012-07-16 18:58:00,
2012-07-16 14:03:00,96.4,59.9,29.97,ESE,121,6.3,6.3,30,0.00,,,0.00,VWS V13.01,2012-07-16 19:03:00,
2012-07-16 14:08:00,96.6,61.0,29.97,WSW,251,5.4,5.4,31,0.00,,,0.00,VWS V13.01,2012-07-16 19:08:00,
2012-07-16 14:13:00,96.6,60.1,29.97,ESE,113,3.1,4.0,30,0.00,,,0.00,VWS V13.01,2012-07-16 19:13:00,
2012-07-16 14:18:00,97.6,60.0,29.97,SE,143,5.8,6.3,29,0.00,,,0.00,VWS V13.01,2012-07-16 19:18:00,
2012-07-16 14:23:00,97.3,59.7,29.97,SSE,164,4.0,6.3,29,0.00,,,0.00,VWS V13.01,2012-07-16 19:23:00,
2012-07-16 14:28:00,96.6,59.1,29.97,NE,53,5.4,6.7,29,0.00,,,0.00,VWS V13.01,2012-07-16 19:28:00,
2012-07-16 14:33:00,97.3,60.7,29.94,SSW,211,4.0,4.0,30,0.00,,,0.00,VWS V13.01,2012-07-16 19:33:00,
2012-07-16 14:38:00,98.2,60.5,29.94,South,170,5.8,6.3,29,0.00,,,0.00,VWS V13.01,2012-07-16 19:38:00,
2012-07-16 14:43:00,96.9,59.4,29.94,South,173,3.1,3.6,29,0.00,,,0.00,VWS V13.01,2012-07-16 19:43:00,
2012-07-16 14:48:00,98.4,60.7,29.94,SSE,147,3.6,4.0,29,0.00,,,0.00,VWS V13.01,2012-07-16 19:48:00,
2012-07-16 14:53:00,99.3,60.4,29.94,South,186,3.1,4.0,28,0.00,,,0.00,VWS V13.01,2012-07-16 19:53:00,
2012-07-16 14:58:00,99.3,60.4,29.94,SE,128,6.7,6.7,28,0.00,,,0.00,VWS V13.01,2012-07-16 19:58:00,
2012-07-16 15:03:00,98.9,60.1,29.94,SSE,163,4.0,4.0,28,0.00,,,0.00,VWS V13.01,2012-07-16 20:03:00,
2012-07-16 15:08:00,98.2,59.5,29.94,ESE,105,3.1,4.0,28,0.00,,,0.00,VWS V13.01,2012-07-16 20:08:00,
2012-07-16 15:13:00,97.6,59.1,29.94,SE,125,2.7,3.1,28,0.00,,,0.00,VWS V13.01,2012-07-16 20:13:00,
2012-07-16 15:18:00,97.1,58.6,29.94,ENE,63,4.9,5.8,28,0.00,,,0.00,VWS V13.01,2012-07-16 20:18:00,
2012-07-16 15:23:00,96.7,58.3,29.94,SSW,194,2.7,3.1,28,0.00,,,0.00,VWS V13.01,2012-07-16 20:23:00,
2012-07-16 15:28:00,96.6,59.1,29.94,SSE,159,5.8,5.8,29,0.00,,,0.00,VWS V13.01,2012-07-16 20:28:00,
2012-07-16 15:33:00,96.7,58.3,29.94,South,183,0.0,3.6,28,0.00,,,0.00,VWS V13.01,2012-07-16 20:33:00,
2012-07-16 15:38:00,96.6,58.1,29.94,SE,139,5.8,5.8,28,0.00,,,0.00,VWS V13.01,2012-07-16 20:38:00,
2012-07-16 15:43:00,96.4,58.0,29.94,North,358,2.7,2.7,28,0.00,,,0.00,VWS V13.01,2012-07-16 20:43:00,
2012-07-16 15:48:00,97.1,58.6,29.94,East,93,7.2,7.2,28,0.00,,,0.00,VWS V13.01,2012-07-16 20:48:00,
2012-07-16 15:53:00,97.3,58.8,29.94,ESE,123,8.3,8.3,28,0.00,,,0.00,VWS V13.01,2012-07-16 20:53:00,
2012-07-16 15:58:00,97.5,58.9,29.94,NE,56,3.6,4.9,28,0.00,,,0.00,VWS V13.01,2012-07-16 20:58:00,
2012-07-16 16:03:00,97.5,58.9,29.94,NNW,328,0.0,0.0,28,0.00,,,0.00,VWS V13.01,2012-07-16 21:03:00,
2012-07-16 16:08:00,97.6,59.1,29.94,NE,50,3.1,3.1,28,0.00,,,0.00,VWS V13.01,2012-07-16 21:08:00,
2012-07-16 16:13:00,97.8,59.2,29.94,ENE,71,4.0,4.0,28,0.00,,,0.00,VWS V13.01,2012-07-16 21:13:00,
2012-07-16 16:18:00,97.3,58.8,29.94,ESE,117,2.7,2.7,28,0.00,,,0.00,VWS V13.01,2012-07-16 21:18:00,
2012-07-16 16:23:00,96.9,58.5,29.94,NNE,32,0.0,0.0,28,0.00,,,0.00,VWS V13.01,2012-07-16 21:23:00,
2012-07-16 16:28:00,96.9,58.5,29.94,South,186,5.8,6.3,28,0.00,,,0.00,VWS V13.01,2012-07-16 21:28:00,
2012-07-16 16:33:00,96.7,58.3,29.91,SSW,195,5.8,5.8,28,0.00,,,0.00,VWS V13.01,2012-07-16 21:33:00,
2012-07-16 16:38:00,97.1,58.6,29.91,West,267,4.9,4.9,28,0.00,,,0.00,VWS V13.01,2012-07-16 21:38:00,
2012-07-16 16:43:00,97.8,59.2,29.91,South,177,5.4,5.4,28,0.00,,,0.00,VWS V13.01,2012-07-16 21:43:00,
2012-07-16 16:48:00,97.6,59.1,29.91,West,260,4.9,5.4,28,0.00,,,0.00,VWS V13.01,2012-07-16 21:48:00,
2012-07-16 16:53:00,97.5,58.9,29.91,SW,222,4.9,4.9,28,0.00,,,0.00,VWS V13.01,2012-07-16 21:53:00,
2012-07-16 16:58:00,97.6,59.1,29.91,SW,234,3.1,4.9,28,0.00,,,0.00,VWS V13.01,2012-07-16 21:58:00,
2012-07-16 17:03:00,97.6,59.1,29.91,South,191,3.6,3.6,28,0.00,,,0.00,VWS V13.01,2012-07-16 22:03:00,
2012-07-16 17:08:00,97.1,58.6,29.91,South,173,3.1,3.1,28,0.00,,,0.00,VWS V13.01,2012-07-16 22:08:00,
2012-07-16 17:13:00,96.7,58.3,29.91,SW,218,4.9,5.8,28,0.00,,,0.00,VWS V13.01,2012-07-16 22:13:00,
2012-07-16 17:18:00,96.6,58.1,29.91,South,182,3.1,3.1,28,0.00,,,0.00,VWS V13.01,2012-07-16 22:18:00,
2012-07-16 17:23:00,96.9,58.5,29.91,South,175,4.9,4.9,28,0.00,,,0.00,VWS V13.01,2012-07-16 22:23:00,
2012-07-16 17:28:00,97.3,58.8,29.91,ESE,117,3.1,3.1,28,0.00,,,0.00,VWS V13.01,2012-07-16 22:28:00,
2012-07-16 17:33:00,97.5,58.9,29.91,East,84,2.7,3.1,28,0.00,,,0.00,VWS V13.01,2012-07-16 22:33:00,
2012-07-16 17:38:00,97.6,59.1,29.91,SSW,199,4.9,5.8,28,0.00,,,0.00,VWS V13.01,2012-07-16 22:38:00,
2012-07-16 17:43:00,97.3,58.8,29.91,South,189,2.2,2.2,28,0.00,,,0.00,VWS V13.01,2012-07-16 22:43:00,
2012-07-16 17:48:00,97.6,59.1,29.91,South,178,3.6,3.6,28,0.00,,,0.00,VWS V13.01,2012-07-16 22:48:00,
2012-07-16 17:53:00,97.8,59.2,29.91,SE,143,3.1,4.9,28,0.00,,,0.00,VWS V13.01,2012-07-16 22:53:00,
2012-07-16 17:58:00,98.0,58.3,29.91,SE,130,4.0,5.8,27,0.00,,,0.00,VWS V13.01,2012-07-16 22:58:00,
2012-07-16 18:03:00,98.2,58.5,29.91,SE,143,5.4,5.4,27,0.00,,,0.00,VWS V13.01,2012-07-16 23:03:00,
2012-07-16 18:08:00,98.4,58.7,29.91,South,178,4.0,5.4,27,0.00,,,0.00,VWS V13.01,2012-07-16 23:08:00,
2012-07-16 18:13:00,98.4,58.7,29.91,South,184,3.1,3.1,27,0.00,,,0.00,VWS V13.01,2012-07-16 23:13:00,
2012-07-16 18:18:00,97.8,59.2,29.91,South,177,3.1,3.1,28,0.00,,,0.00,VWS V13.01,2012-07-16 23:18:00,
2012-07-16 18:23:00,97.5,58.9,29.91,SSE,167,4.0,6.3,28,0.00,,,0.00,VWS V13.01,2012-07-16 23:23:00,
2012-07-16 18:28:00,96.9,58.5,29.91,East,93,3.6,3.6,28,0.00,,,0.00,VWS V13.01,2012-07-16 23:28:00,
2012-07-16 18:33:00,96.6,58.1,29.88,ESE,112,2.7,2.7,28,0.00,,,0.00,VWS V13.01,2012-07-16 23:33:00,
2012-07-16 18:38:00,96.4,58.0,29.88,SE,138,2.2,2.2,28,0.00,,,0.00,VWS V13.01,2012-07-16 23:38:00,
2012-07-16 18:43:00,96.4,58.0,29.88,East,89,3.1,3.1,28,0.00,,,0.00,VWS V13.01,2012-07-16 23:43:00,
2012-07-16 18:48:00,96.2,57.8,29.88,East,98,3.1,3.1,28,0.00,,,0.00,VWS V13.01,2012-07-16 23:48:00,
2012-07-16 18:53:00,96.2,57.8,29.88,ENE,75,3.1,3.1,28,0.00,,,0.00,VWS V13.01,2012-07-16 23:53:00,
2012-07-16 18:58:00,96.4,58.0,29.88,SE,130,4.9,5.4,28,0.00,,,0.00,VWS V13.01,2012-07-16 23:58:00,
2012-07-16 19:03:00,96.4,58.0,29.88,SE,125,3.6,3.6,28,0.00,,,0.00,VWS V13.01,2012-07-17 00:03:00,
2012-07-16 19:08:00,96.4,58.0,29.88,South,171,3.1,4.0,28,0.00,,,0.00,VWS V13.01,2012-07-17 00:08:00,
2012-07-16 19:13:00,96.2,57.8,29.88,SSW,201,4.0,4.0,28,0.00,,,0.00,VWS V13.01,2012-07-17 00:13:00,
2012-07-16 19:18:00,96.4,58.0,29.88,SSE,164,6.3,6.7,28,0.00,,,0.00,VWS V13.01,2012-07-17 00:18:00,
2012-07-16 19:23:00,96.2,57.8,29.88,South,191,4.5,4.5,28,0.00,,,0.00,VWS V13.01,2012-07-17 00:23:00,
2012-07-16 19:28:00,96.4,58.0,29.88,ESE,120,0.0,2.7,28,0.00,,,0.00,VWS V13.01,2012-07-17 00:28:00,
2012-07-16 19:33:00,96.2,57.8,29.88,South,182,2.7,4.9,28,0.00,,,0.00,VWS V13.01,2012-07-17 00:33:00,
2012-07-16 19:38:00,95.8,58.5,29.88,SSE,150,3.1,3.1,29,0.00,,,0.00,VWS V13.01,2012-07-17 00:38:00,
2012-07-16 19:43:00,95.7,58.3,29.88,SSE,150,3.6,4.9,29,0.00,,,0.00,VWS V13.01,2012-07-17 00:43:00,
2012-07-16 19:48:00,95.3,58.0,29.91,South,172,3.6,4.9,29,0.00,,,0.00,VWS V13.01,2012-07-17 00:48:00,
2012-07-16 19:53:00,94.8,57.6,29.91,SSE,147,3.6,3.6,29,0.00,,,0.00,VWS V13.01,2012-07-17 00:53:00,
2012-07-16 19:58:00,94.4,58.2,29.91,South,169,0.0,0.0,30,0.00,,,0.00,VWS V13.01,2012-07-17 00:58:00,
2012-07-16 20:03:00,94.0,57.9,29.91,ESE,122,2.2,3.6,30,0.00,,,0.00,VWS V13.01,2012-07-17 01:03:00,
2012-07-16 20:08:00,93.9,58.7,29.91,ESE,115,2.7,3.6,31,0.00,,,0.00,VWS V13.01,2012-07-17 01:08:00,
2012-07-16 20:13:00,93.5,59.2,29.91,SSE,155,2.7,2.7,32,0.00,,,0.00,VWS V13.01,2012-07-17 01:13:00,
2012-07-16 20:18:00,93.3,59.1,29.91,SE,133,0.0,3.1,32,0.00,,,0.00,VWS V13.01,2012-07-17 01:18:00,
2012-07-16 20:23:00,93.1,58.9,29.91,SSE,147,0.0,0.0,32,0.00,,,0.00,VWS V13.01,2012-07-17 01:23:00,
2012-07-16 20:28:00,92.8,59.5,29.91,South,178,0.0,2.7,33,0.00,,,0.00,VWS V13.01,2012-07-17 01:28:00,
2012-07-16 20:33:00,92.4,60.0,29.91,South,177,0.0,0.0,34,0.00,,,0.00,VWS V13.01,2012-07-17 01:33:00,
2012-07-16 20:38:00,92.1,60.5,29.91,South,177,0.0,0.0,35,0.00,,,0.00,VWS V13.01,2012-07-17 01:38:00,
2012-07-16 20:43:00,91.7,61.0,29.91,SE,127,0.0,2.7,36,0.00,,,0.00,VWS V13.01,2012-07-17 01:43:00,
2012-07-16 20:48:00,91.5,60.8,29.91,ESE,110,0.0,0.0,36,0.00,,,0.00,VWS V13.01,2012-07-17 01:48:00,
2012-07-16 20:53:00,91.3,61.4,29.91,SSE,167,2.7,3.6,37,0.00,,,0.00,VWS V13.01,2012-07-17 01:53:00,
2012-07-16 20:58:00,91.2,61.3,29.91,SSE,147,0.0,2.2,37,0.00,,,0.00,VWS V13.01,2012-07-17 01:58:00,
2012-07-16 21:03:00,91.0,61.9,29.91,SSE,158,0.0,0.0,38,0.00,,,0.00,VWS V13.01,2012-07-17 02:03:00,
2012-07-16 21:08:00,91.0,61.9,29.91,SE,133,3.1,3.1,38,0.00,,,0.00,VWS V13.01,2012-07-17 02:08:00,
2012-07-16 21:12:00,90.6,61.6,29.91,SSE,167,0.0,0.0,38,0.00,,,0.00,VWS V13.01,2012-07-17 02:12:00,
2012-07-16 21:18:00,90.6,61.6,29.91,SSE,162,0.0,0.0,38,0.00,,,0.00,VWS V13.01,2012-07-17 02:18:00,
2012-07-16 21:22:00,90.3,61.2,29.91,SSE,159,0.0,0.0,38,0.00,,,0.00,VWS V13.01,2012-07-17 02:22:00,
2012-07-16 21:27:00,90.1,61.8,29.91,East,100,0.0,0.0,39,0.00,,,0.00,VWS V13.01,2012-07-17 02:27:00,
2012-07-16 21:32:00,89.9,61.7,29.91,East,100,0.0,0.0,39,0.00,,,0.00,VWS V13.01,2012-07-17 02:32:00,
2012-07-16 21:37:00,89.5,61.3,29.91,East,100,0.0,0.0,39,0.00,,,0.00,VWS V13.01,2012-07-17 02:37:00,
2012-07-16 21:42:00,89.4,61.2,29.91,SSE,147,0.0,0.0,39,0.00,,,0.00,VWS V13.01,2012-07-17 02:42:00,
2012-07-16 21:47:00,89.2,61.0,29.91,South,171,0.0,0.0,39,0.00,,,0.00,VWS V13.01,2012-07-17 02:47:00,
2012-07-16 21:52:00,89.2,61.0,29.91,South,172,0.0,0.0,39,0.00,,,0.00,VWS V13.01,2012-07-17 02:52:00,
2012-07-16 21:58:00,89.0,60.8,29.91,South,172,0.0,0.0,39,0.00,,,0.00,VWS V13.01,2012-07-17 02:58:00,
2012-07-16 22:03:00,88.8,61.4,29.91,South,172,0.0,0.0,40,0.00,,,0.00,VWS V13.01,2012-07-17 03:03:00,
2012-07-16 22:08:00,88.5,61.1,29.91,South,172,0.0,0.0,40,0.00,,,0.00,VWS V13.01,2012-07-17 03:08:00,
2012-07-16 22:13:00,88.3,61.6,29.91,South,172,0.0,0.0,41,0.00,,,0.00,VWS V13.01,2012-07-17 03:13:00,
2012-07-16 22:18:00,87.9,61.3,29.94,South,172,0.0,0.0,41,0.00,,,0.00,VWS V13.01,2012-07-17 03:18:00,
2012-07-16 22:23:00,87.6,61.7,29.94,South,172,0.0,0.0,42,0.00,,,0.00,VWS V13.01,2012-07-17 03:23:00,
2012-07-16 22:28:00,87.2,62.0,29.94,South,172,0.0,0.0,43,0.00,,,0.00,VWS V13.01,2012-07-17 03:28:00,
2012-07-16 22:33:00,86.8,62.3,29.94,South,172,0.0,0.0,44,0.00,,,0.00,VWS V13.01,2012-07-17 03:33:00,
2012-07-16 22:38:00,86.5,63.3,29.94,SSE,147,0.0,0.0,46,0.00,,,0.00,VWS V13.01,2012-07-17 03:38:00,
2012-07-16 22:43:00,86.3,63.1,29.94,NNE,27,0.0,0.0,46,0.00,,,0.00,VWS V13.01,2012-07-17 03:43:00,
2012-07-16 22:48:00,86.1,63.5,29.94,NNE,32,0.0,0.0,47,0.00,,,0.00,VWS V13.01,2012-07-17 03:48:00,
2012-07-16 22:53:00,85.8,64.4,29.94,NNE,32,0.0,0.0,49,0.00,,,0.00,VWS V13.01,2012-07-17 03:53:00,
2012-07-16 22:58:00,85.2,64.5,29.94,NNE,32,0.0,0.0,50,0.00,,,0.00,VWS V13.01,2012-07-17 03:58:00,
2012-07-16 23:00:00,85.0,64.3,29.94,NNE,32,0.0,0.0,50,0.00,,,0.00,VWS V13.01,2012-07-17 04:00:00,
2012-07-16 23:05:00,84.5,63.8,29.94,NNE,32,0.0,0.0,50,0.00,,,0.00,VWS V13.01,2012-07-17 04:05:00,
2012-07-16 23:10:00,84.3,64.2,29.94,NNE,32,0.0,0.0,51,0.00,,,0.00,VWS V13.01,2012-07-17 04:10:00,
2012-07-16 23:15:00,84.1,64.1,29.94,NNE,32,0.0,0.0,51,0.00,,,0.00,VWS V13.01,2012-07-17 04:15:00,
2012-07-16 23:20:00,84.0,64.5,29.94,NNE,32,0.0,0.0,52,0.00,,,0.00,VWS V13.01,2012-07-17 04:20:00,
2012-07-16 23:25:00,83.8,64.3,29.94,NNE,32,0.0,0.0,52,0.00,,,0.00,VWS V13.01,2012-07-17 04:25:00,
2012-07-16 23:30:00,83.4,64.5,29.94,NNE,32,0.0,0.0,53,0.00,,,0.00,VWS V13.01,2012-07-17 04:30:00,
2012-07-16 23:35:00,83.2,64.9,29.94,NNE,32,0.0,0.0,54,0.00,,,0.00,VWS V13.01,2012-07-17 04:35:00,
2012-07-16 23:40:00,83.1,64.7,29.94,NNE,32,0.0,0.0,54,0.00,,,0.00,VWS V13.01,2012-07-17 04:40:00,
2012-07-16 23:45:00,82.9,64.6,29.94,NNE,32,0.0,0.0,54,0.00,,,0.00,VWS V13.01,2012-07-17 04:45:00,
2012-07-16 23:50:00,82.7,64.4,29.94,NNE,32,0.0,0.0,54,0.00,,,0.00,VWS V13.01,2012-07-17 04:50:00,
2012-07-16 23:55:00,82.7,64.4,29.94,NNE,32,0.0,0.0,54,0.00,,,0.00,VWS V13.01,2012-07-17 04:55:00,